Terminal Aerodrome Forecast
Issued by NWS Wakefield, VA

Home | Current Version | Previous Version | Text Only | Print | Product List | Glossary On
Versions: 1 2 3 4 5 6 7 8 9 10 11 12 13 14 15 16 17 18 19 20 21 22 23 24
340
FTUS41 KAKQ 300814 AAA
TAFORF
TAF AMD
KORF 300814Z 3008/3106 11006KT P6SM VCSH SCT006 OVC012
      TEMPO 3008/3010 BKN006
     FM301000 12004KT P6SM -SHRA OVC006
     FM301400 10005KT P6SM OVC006
     FM301600 09006KT P6SM BKN025
     FM301800 07007KT P6SM BKN050=

USA.gov is the U.S. government's official web portal to all federal, state and local government web resources and services.